Time;durP1;ratioP1;P1;durP2;ratioP2;P2;SDS_P1;SDS_P2;PMS_P1;PMS_P2;Temp;Humidity;BMP_temperature;BMP_pressure;BME280_temperature;BME280_humidity;BME280_pressure;Samples;Min_cycle;Max_cycle;Signal;HPM_P1;HPM_P2
2023/01/15 00:00:03;;;;;;;3.77;0.77;;;6.90;99.90;;;;;;4954636;28;20230;-58
2023/01/15 00:02:33;;;;;;;4.17;0.80;;;6.90;99.90;;;;;;4953891;28;20343;-58
2023/01/15 00:05:02;;;;;;;4.60;0.93;;;7.00;99.90;;;;;;4954401;28;20235;-59
2023/01/15 00:07:31;;;;;;;5.30;1.23;;;6.90;99.90;;;;;;4954464;28;20236;-58
2023/01/15 00:09:59;;;;;;;5.93;1.07;;;6.90;99.90;;;;;;4954873;28;20230;-59
2023/01/15 00:12:27;;;;;;;3.30;1.10;;;6.90;99.90;;;;;;4954375;28;20237;-58
2023/01/15 00:14:56;;;;;;;2.40;0.97;;;6.90;99.90;;;;;;4955121;28;20239;-59
2023/01/15 00:17:25;;;;;;;4.03;1.10;;;6.90;99.90;;;;;;4954741;28;20652;-57
2023/01/15 00:19:54;;;;;;;4.57;0.87;;;6.90;99.90;;;;;;4954127;28;20291;-59
2023/01/15 00:22:22;;;;;;;4.50;0.70;;;6.90;99.90;;;;;;4954526;29;20231;-59
2023/01/15 00:27:39;;;;;;;3.43;0.80;;;6.90;99.90;;;;;;4958358;29;20246;-58
2023/01/15 00:30:11;;;;;;;3.33;0.90;;;6.90;99.90;;;;;;4958386;28;20683;-59
2023/01/15 00:32:39;;;;;;;2.37;0.70;;;6.80;99.90;;;;;;4956470;29;20243;-59
2023/01/15 00:35:13;;;;;;;4.33;0.90;;;6.80;99.90;;;;;;4957948;28;20728;-59
2023/01/15 00:37:42;;;;;;;3.73;0.90;;;6.80;99.90;;;;;;4956780;29;20306;-59
2023/01/15 00:40:12;;;;;;;4.10;0.93;;;6.80;99.90;;;;;;4958024;28;20227;-59
2023/01/15 00:42:40;;;;;;;3.63;0.90;;;6.80;99.90;;;;;;4957582;28;20615;-59
2023/01/15 00:45:10;;;;;;;4.93;0.90;;;6.80;99.90;;;;;;4958262;28;20223;-59
2023/01/15 00:47:39;;;;;;;1.77;0.70;;;6.80;99.90;;;;;;4957738;29;20231;-59
2023/01/15 00:50:12;;;;;;;4.10;1.20;;;6.80;99.90;;;;;;4956677;29;20230;-59
2023/01/15 00:52:40;;;;;;;4.53;1.00;;;6.80;99.90;;;;;;4957361;28;20237;-59
2023/01/15 00:55:08;;;;;;;3.50;1.47;;;6.80;99.90;;;;;;4957867;28;20224;-59
2023/01/15 00:57:37;;;;;;;2.23;0.70;;;6.80;99.90;;;;;;4957617;28;20707;-59
2023/01/15 01:00:06;;;;;;;3.13;0.77;;;6.90;99.90;;;;;;4957515;28;20223;-59
2023/01/15 01:02:34;;;;;;;4.03;0.90;;;6.80;99.90;;;;;;4956901;28;20243;-59
2023/01/15 01:05:02;;;;;;;4.37;1.00;;;6.80;99.90;;;;;;4956258;29;20254;-59
2023/01/15 01:07:31;;;;;;;3.57;0.80;;;6.80;99.90;;;;;;4957646;29;20257;-59
2023/01/15 01:09:59;;;;;;;8.17;0.93;;;6.80;99.90;;;;;;4957706;28;20234;-59
2023/01/15 01:12:27;;;;;;;4.90;0.90;;;6.80;99.90;;;;;;4957343;28;20232;-58
2023/01/15 01:14:55;;;;;;;2.73;1.07;;;6.80;99.90;;;;;;4957462;29;20227;-59
2023/01/15 01:17:24;;;;;;;5.47;1.07;;;6.80;99.90;;;;;;4957644;29;20243;-59
2023/01/15 01:19:52;;;;;;;3.13;0.83;;;6.80;99.90;;;;;;4956200;29;20242;-59
2023/01/15 01:22:20;;;;;;;6.33;0.90;;;6.80;99.90;;;;;;4957330;29;20568;-59
2023/01/15 01:24:49;;;;;;;4.97;1.03;;;6.90;99.90;;;;;;4957187;29;20223;-59
2023/01/15 01:27:18;;;;;;;4.83;1.00;;;6.90;99.90;;;;;;4957178;29;20227;-59
2023/01/15 01:29:46;;;;;;;3.63;1.10;;;6.80;99.90;;;;;;4956947;28;20750;-59
2023/01/15 01:32:14;;;;;;;4.70;1.10;;;6.80;99.90;;;;;;4956695;28;20243;-60
2023/01/15 01:34:42;;;;;;;4.40;0.90;;;6.80;99.90;;;;;;4957126;28;20319;-59
2023/01/15 01:37:10;;;;;;;3.67;1.10;;;6.80;99.90;;;;;;4937707;28;20227;-59
2023/01/15 01:39:39;;;;;;;3.57;0.90;;;6.90;99.90;;;;;;4937722;29;20315;-59
2023/01/15 01:42:12;;;;;;;2.93;1.00;;;6.90;99.90;;;;;;4946797;29;20223;-58
2023/01/15 01:45:14;;;;;;;7.77;1.60;;;6.90;99.90;;;;;;4956809;29;20226;-59
2023/01/15 01:47:42;;;;;;;2.93;0.97;;;6.90;99.90;;;;;;4956996;29;20691;-59
2023/01/15 01:50:13;;;;;;;4.30;0.93;;;6.90;99.90;;;;;;4956852;28;20234;-59
2023/01/15 01:52:46;;;;;;;5.00;1.07;;;6.80;99.90;;;;;;4956505;28;20325;-59
2023/01/15 01:55:17;;;;;;;2.20;0.73;;;6.80;99.90;;;;;;4955562;29;20703;-59
2023/01/15 01:57:51;;;;;;;8.17;1.40;;;6.80;99.90;;;;;;4955242;29;20235;-59
2023/01/15 02:00:20;;;;;;;4.77;1.20;;;6.80;99.90;;;;;;4956067;28;20305;-59
2023/01/15 02:02:51;;;;;;;5.07;1.70;;;6.80;99.90;;;;;;4956142;28;20249;-59
2023/01/15 02:05:27;;;;;;;5.57;1.30;;;6.80;99.90;;;;;;4951992;29;20585;-59
2023/01/15 02:07:56;;;;;;;4.07;0.93;;;6.80;99.90;;;;;;4936045;29;20251;-59
2023/01/15 02:10:24;;;;;;;5.03;1.20;;;6.80;99.90;;;;;;4936100;29;20259;-59
2023/01/15 02:13:00;;;;;;;4.57;1.10;;;6.80;99.90;;;;;;4950993;29;20235;-59
2023/01/15 02:15:33;;;;;;;6.43;1.10;;;6.80;99.90;;;;;;4956079;28;20591;-59
2023/01/15 02:18:10;;;;;;;4.07;1.00;;;6.80;99.90;;;;;;4955071;29;20699;-60
2023/01/15 02:20:42;;;;;;;5.80;1.40;;;6.90;99.90;;;;;;4953716;29;20235;-59
2023/01/15 02:23:32;;;;;;;6.70;1.00;;;6.90;99.90;;;;;;4956224;28;20229;-59
2023/01/15 02:26:25;;;;;;;5.07;1.30;;;6.80;99.90;;;;;;4954984;29;20232;-59
2023/01/15 02:28:58;;;;;;;6.07;1.90;;;6.80;99.90;;;;;;4954469;29;20227;-59
2023/01/15 02:31:36;;;;;;;5.33;1.30;;;6.80;99.90;;;;;;4954310;29;20705;-58
2023/01/15 02:34:10;;;;;;;4.20;1.10;;;6.80;99.90;;;;;;4954528;29;20231;-59
2023/01/15 02:36:43;;;;;;;8.23;1.10;;;6.80;99.90;;;;;;4951314;29;20224;-59
2023/01/15 02:39:21;;;;;;;8.57;1.47;;;6.80;99.90;;;;;;4935559;29;20577;-59
2023/01/15 02:41:51;;;;;;;6.10;1.10;;;6.90;99.90;;;;;;4941412;29;20227;-58
2023/01/15 02:44:23;;;;;;;6.83;1.37;;;6.80;99.90;;;;;;4954864;29;20231;-59
2023/01/15 02:46:56;;;;;;;5.63;1.30;;;6.80;99.90;;;;;;4953880;28;20230;-59
2023/01/15 02:49:27;;;;;;;5.80;1.00;;;6.80;99.90;;;;;;4954384;29;20269;-58
2023/01/15 02:52:02;;;;;;;8.40;1.50;;;6.80;99.90;;;;;;4955662;28;20231;-58
2023/01/15 02:54:35;;;;;;;6.77;1.40;;;6.80;99.90;;;;;;4955499;28;20239;-59
2023/01/15 02:57:05;;;;;;;7.47;1.83;;;6.80;99.90;;;;;;4954606;29;20231;-59
2023/01/15 02:59:38;;;;;;;5.03;1.40;;;6.80;99.90;;;;;;4955420;28;20351;-59
2023/01/15 03:02:13;;;;;;;5.13;1.23;;;6.80;99.90;;;;;;4953335;28;20254;-59
2023/01/15 03:04:47;;;;;;;5.13;1.20;;;6.80;99.90;;;;;;4955166;28;20301;-59
2023/01/15 03:07:19;;;;;;;6.20;1.27;;;6.80;99.90;;;;;;4936316;29;20596;-59
2023/01/15 03:09:48;;;;;;;6.13;1.30;;;6.80;99.90;;;;;;4935099;29;20236;-59
2023/01/15 03:12:22;;;;;;;7.50;1.20;;;6.80;99.90;;;;;;4946934;29;20305;-59
2023/01/15 03:14:58;;;;;;;9.13;2.23;;;6.80;99.90;;;;;;4953986;29;20606;-60
2023/01/15 03:17:35;;;;;;;10.37;1.30;;;6.80;99.90;;;;;;4953773;29;20691;-59
2023/01/15 03:20:10;;;;;;;5.37;1.20;;;6.70;99.90;;;;;;4953968;29;20227;-59
2023/01/15 03:22:44;;;;;;;6.80;1.33;;;6.70;99.90;;;;;;4954853;28;20239;-58
2023/01/15 03:25:16;;;;;;;8.17;1.83;;;6.70;99.90;;;;;;4955138;29;20220;-59
2023/01/15 03:27:48;;;;;;;6.63;1.70;;;6.70;99.90;;;;;;4954907;29;20235;-59
2023/01/15 03:30:20;;;;;;;7.07;1.20;;;6.70;99.90;;;;;;4950111;29;20330;-59
2023/01/15 03:32:50;;;;;;;8.03;1.50;;;6.70;99.90;;;;;;4945083;29;20278;-59
2023/01/15 03:35:48;;;;;;;6.87;1.30;;;6.70;99.90;;;;;;4953584;29;20283;-59
2023/01/15 03:38:40;;;;;;;6.70;1.53;;;6.70;99.90;;;;;;4953607;29;20839;-59
2023/01/15 03:41:18;;;;;;;7.37;1.63;;;6.70;99.90;;;;;;4953259;29;20226;-59
2023/01/15 03:43:58;;;;;;;7.00;1.23;;;6.70;99.90;;;;;;4953329;29;20234;-59
2023/01/15 03:46:41;;;;;;;6.83;1.57;;;6.70;99.90;;;;;;4953383;28;20262;-59
2023/01/15 03:49:25;;;;;;;7.93;1.50;;;6.70;99.90;;;;;;4953573;29;20231;-59
2023/01/15 03:52:01;;;;;;;9.27;1.47;;;6.80;99.90;;;;;;4954706;28;20223;-59
2023/01/15 03:54:38;;;;;;;6.53;1.67;;;6.70;99.90;;;;;;4953220;29;20273;-59
2023/01/15 03:57:14;;;;;;;8.30;1.77;;;6.70;99.90;;;;;;4954501;29;20231;-59
2023/01/15 03:59:48;;;;;;;9.67;2.00;;;6.70;99.90;;;;;;4952673;28;20322;-59
2023/01/15 04:02:20;;;;;;;5.70;1.50;;;6.70;99.90;;;;;;4952682;29;20289;-59
2023/01/15 04:04:51;;;;;;;8.63;1.63;;;6.70;99.90;;;;;;4953005;29;20242;-58
2023/01/15 04:07:20;;;;;;;10.90;1.90;;;6.70;99.90;;;;;;4953392;29;20247;-59
2023/01/15 04:09:48;;;;;;;5.97;1.30;;;6.80;99.90;;;;;;4954600;28;20299;-59
2023/01/15 04:12:17;;;;;;;8.83;1.70;;;6.70;99.90;;;;;;4952728;29;20228;-59
2023/01/15 04:14:48;;;;;;;5.20;1.57;;;6.70;99.90;;;;;;4954275;28;20235;-58
2023/01/15 04:17:21;;;;;;;6.57;1.60;;;6.70;99.90;;;;;;4953400;29;20592;-59
2023/01/15 04:19:50;;;;;;;5.13;1.43;;;6.70;99.90;;;;;;4954851;28;20471;-59
2023/01/15 04:22:18;;;;;;;9.70;1.57;;;6.70;99.90;;;;;;4953182;29;20231;-59
2023/01/15 04:24:46;;;;;;;5.00;1.57;;;6.70;99.90;;;;;;4953020;29;20266;-57
2023/01/15 04:27:14;;;;;;;7.13;1.70;;;6.70;99.90;;;;;;4954357;29;20238;-59
2023/01/15 04:29:42;;;;;;;6.37;1.30;;;6.60;99.90;;;;;;4954374;28;20235;-59
2023/01/15 04:32:10;;;;;;;11.33;2.00;;;6.60;99.90;;;;;;4940116;28;20223;-58
2023/01/15 04:34:39;;;;;;;8.50;2.10;;;6.60;99.90;;;;;;4954268;29;20565;-59
2023/01/15 04:37:07;;;;;;;8.77;1.80;;;6.60;99.90;;;;;;4954527;28;20722;-59
2023/01/15 04:39:35;;;;;;;7.20;1.70;;;6.60;99.90;;;;;;4954419;28;20226;-59
2023/01/15 04:44:49;;;;;;;10.53;2.00;;;6.60;99.90;;;;;;4954024;29;20474;-59
2023/01/15 04:47:17;;;;;;;10.37;1.70;;;6.60;99.90;;;;;;4954512;29;20240;-59
2023/01/15 04:49:46;;;;;;;9.30;1.93;;;6.60;99.90;;;;;;4953970;29;20242;-59
2023/01/15 04:52:15;;;;;;;8.40;1.47;;;6.60;99.90;;;;;;4953975;28;20239;-59
2023/01/15 04:54:43;;;;;;;9.33;1.87;;;6.60;99.90;;;;;;4953797;29;20227;-59
2023/01/15 04:57:44;;;;;;;8.07;1.73;;;6.60;99.90;;;;;;4952958;28;20699;-59
2023/01/15 05:00:14;;;;;;;10.13;1.77;;;6.60;99.90;;;;;;4947549;28;20845;-58
2023/01/15 05:02:42;;;;;;;8.17;2.07;;;6.60;99.90;;;;;;4953474;28;20245;-59
2023/01/15 05:05:12;;;;;;;11.20;1.83;;;6.60;99.90;;;;;;4954202;29;20314;-59
2023/01/15 05:07:40;;;;;;;9.27;2.03;;;6.50;99.90;;;;;;4954130;28;20243;-58
2023/01/15 05:10:09;;;;;;;7.40;1.90;;;6.50;99.90;;;;;;4954622;28;20231;-59
2023/01/15 05:12:37;;;;;;;9.40;2.00;;;6.60;99.90;;;;;;4957351;29;20597;-59
2023/01/15 05:15:06;;;;;;;9.27;1.80;;;6.60;99.90;;;;;;4957448;29;20238;-59
2023/01/15 05:17:34;;;;;;;5.20;1.60;;;6.60;99.90;;;;;;4957520;28;20227;-59
2023/01/15 05:20:03;;;;;;;8.73;1.80;;;6.50;99.90;;;;;;4957657;29;20547;-59
2023/01/15 05:22:34;;;;;;;9.27;2.30;;;6.50;99.90;;;;;;4957401;29;20482;-59
2023/01/15 05:25:02;;;;;;;10.60;2.40;;;6.50;99.90;;;;;;4957539;29;20470;-59
2023/01/15 05:27:31;;;;;;;11.73;1.90;;;6.50;99.90;;;;;;4957058;29;20471;-59
2023/01/15 05:29:59;;;;;;;9.83;1.80;;;6.50;99.90;;;;;;4957363;28;20243;-58
2023/01/15 05:32:27;;;;;;;9.23;1.80;;;6.50;99.90;;;;;;4956518;28;20312;-59
2023/01/15 05:34:55;;;;;;;10.20;2.10;;;6.50;99.90;;;;;;4957209;28;20234;-59
2023/01/15 05:37:23;;;;;;;8.03;1.80;;;6.50;99.90;;;;;;4957381;28;20227;-59
2023/01/15 05:39:52;;;;;;;10.17;1.90;;;6.50;99.90;;;;;;4957076;28;20227;-59
2023/01/15 05:42:20;;;;;;;9.67;2.07;;;6.60;99.90;;;;;;4956922;28;20234;-58
2023/01/15 05:44:48;;;;;;;8.47;1.60;;;6.70;99.90;;;;;;4957075;28;20227;-59
2023/01/15 05:47:16;;;;;;;8.17;1.67;;;6.70;99.90;;;;;;4957233;29;20227;-59
2023/01/15 05:49:47;;;;;;;11.50;1.90;;;6.70;99.90;;;;;;4956720;29;20455;-59
2023/01/15 05:52:15;;;;;;;9.60;1.60;;;6.70;99.90;;;;;;4957104;29;20227;-59
2023/01/15 05:54:43;;;;;;;8.53;1.77;;;6.70;99.90;;;;;;4956581;29;20238;-59
2023/01/15 05:57:13;;;;;;;6.53;2.17;;;6.80;99.90;;;;;;4956755;28;20482;-59
2023/01/15 05:59:41;;;;;;;7.33;1.60;;;6.80;99.90;;;;;;4956361;28;20572;-59
2023/01/15 06:02:09;;;;;;;10.37;1.70;;;6.70;99.90;;;;;;4941891;29;20715;-59
2023/01/15 06:04:37;;;;;;;8.97;1.93;;;6.70;99.90;;;;;;4956202;28;20242;-59
2023/01/15 06:07:05;;;;;;;10.37;2.10;;;6.70;99.90;;;;;;4956918;28;20235;-59
2023/01/15 06:09:33;;;;;;;7.80;1.87;;;6.70;99.90;;;;;;4956623;28;20238;-59
2023/01/15 06:12:01;;;;;;;9.90;1.97;;;6.70;99.90;;;;;;4956864;28;20709;-59
2023/01/15 06:14:30;;;;;;;9.80;1.70;;;6.70;99.90;;;;;;4956263;28;20223;-58
2023/01/15 06:16:58;;;;;;;9.47;2.00;;;6.70;99.90;;;;;;4956417;28;20720;-59
2023/01/15 06:19:26;;;;;;;8.40;1.83;;;6.70;99.90;;;;;;4956136;28;20564;-57
2023/01/15 06:21:54;;;;;;;8.00;1.80;;;6.70;99.90;;;;;;4955503;28;20234;-58
2023/01/15 06:24:22;;;;;;;6.87;1.83;;;6.70;99.90;;;;;;4956135;28;20242;-59
2023/01/15 06:26:50;;;;;;;11.13;2.13;;;6.70;99.90;;;;;;4956223;28;20256;-59
2023/01/15 06:29:19;;;;;;;9.53;1.70;;;6.70;99.90;;;;;;4956302;29;20231;-59
2023/01/15 06:31:49;;;;;;;7.40;1.70;;;6.70;99.90;;;;;;4955385;28;20267;-59
2023/01/15 06:34:17;;;;;;;9.60;1.90;;;6.80;99.90;;;;;;4955877;28;20231;-59
2023/01/15 06:36:45;;;;;;;13.80;2.30;;;6.70;99.90;;;;;;4955751;28;20409;-59
2023/01/15 06:39:13;;;;;;;9.83;2.40;;;6.70;99.90;;;;;;4955728;29;20231;-58
2023/01/15 06:47:21;;;;;;;10.20;1.73;;;6.80;99.90;;;;;;4956058;29;20235;-59
2023/01/15 06:49:52;;;;;;;9.23;1.97;;;6.70;99.90;;;;;;4955978;29;20238;-59
2023/01/15 06:52:21;;;;;;;7.00;1.63;;;6.70;99.90;;;;;;4955995;29;20466;-57
2023/01/15 06:54:49;;;;;;;7.37;1.50;;;6.70;99.90;;;;;;4955594;28;20311;-58
2023/01/15 06:57:18;;;;;;;7.10;1.73;;;6.70;99.90;;;;;;4955671;29;20251;-58
2023/01/15 06:59:47;;;;;;;12.70;2.20;;;6.70;99.90;;;;;;4954729;28;20270;-59
2023/01/15 07:02:17;;;;;;;7.83;1.60;;;6.70;99.90;;;;;;4954834;28;20243;-58
2023/01/15 07:04:46;;;;;;;6.37;1.50;;;6.70;99.90;;;;;;4954993;28;20234;-58
2023/01/15 07:07:15;;;;;;;6.00;1.70;;;6.70;99.90;;;;;;4955926;29;20235;-59
2023/01/15 07:09:43;;;;;;;5.87;1.87;;;6.70;99.90;;;;;;4955201;29;20231;-58
2023/01/15 07:12:11;;;;;;;11.30;1.90;;;6.70;99.90;;;;;;4955630;29;20322;-59
2023/01/15 07:14:39;;;;;;;9.40;1.90;;;6.70;99.90;;;;;;4954887;28;20224;-59
2023/01/15 07:17:08;;;;;;;9.23;1.83;;;6.70;99.90;;;;;;4955195;28;20223;-59
2023/01/15 07:19:37;;;;;;;9.40;1.60;;;6.70;99.90;;;;;;4953849;29;20656;-59
2023/01/15 07:22:05;;;;;;;14.80;1.93;;;6.70;99.90;;;;;;4955334;29;20235;-59
2023/01/15 07:24:34;;;;;;;12.77;2.23;;;6.70;99.90;;;;;;4955252;28;20595;-59
2023/01/15 07:27:03;;;;;;;12.80;2.17;;;6.60;99.90;;;;;;4954867;28;20238;-59
2023/01/15 07:29:31;;;;;;;8.57;1.87;;;6.60;99.90;;;;;;4955000;28;20319;-58
2023/01/15 07:31:59;;;;;;;10.97;2.10;;;6.60;99.90;;;;;;4954540;28;20239;-59
2023/01/15 07:34:27;;;;;;;10.60;2.20;;;6.50;99.90;;;;;;4954654;28;20232;-58
2023/01/15 07:36:56;;;;;;;8.43;1.90;;;6.50;99.90;;;;;;4954696;28;20228;-59
2023/01/15 07:39:25;;;;;;;10.03;1.80;;;6.60;99.90;;;;;;4955100;28;20227;-58
2023/01/15 07:50:13;;;;;;;7.80;2.07;;;6.50;99.90;;;;;;4955019;29;20227;-58
2023/01/15 07:52:43;;;;;;;8.57;2.30;;;6.50;99.90;;;;;;4954522;29;20232;-59
2023/01/15 07:55:12;;;;;;;7.93;2.10;;;6.50;99.90;;;;;;4954728;29;20230;-59
2023/01/15 07:57:41;;;;;;;10.00;2.03;;;6.50;99.90;;;;;;4954175;29;20998;-58
2023/01/15 08:00:12;;;;;;;8.73;1.97;;;6.50;99.90;;;;;;4946831;29;20261;-59
2023/01/15 08:02:41;;;;;;;11.47;1.87;;;6.50;99.90;;;;;;4953899;28;20250;-59
2023/01/15 08:05:11;;;;;;;7.50;2.27;;;6.40;99.90;;;;;;4953237;29;20242;-59
2023/01/15 08:07:40;;;;;;;10.70;2.80;;;6.40;99.90;;;;;;4954462;28;20293;-58
2023/01/15 08:10:11;;;;;;;8.67;2.07;;;6.40;99.90;;;;;;4954549;28;20227;-59
2023/01/15 08:15:25;;;;;;;12.30;1.97;;;6.30;99.90;;;;;;4954074;29;20229;-58
2023/01/15 08:17:53;;;;;;;9.17;2.17;;;6.30;99.90;;;;;;4954724;28;20233;-59
2023/01/15 08:20:24;;;;;;;10.23;1.97;;;6.30;99.90;;;;;;4954510;28;20311;-59
2023/01/15 08:22:52;;;;;;;10.63;1.73;;;6.30;99.90;;;;;;4954531;28;20234;-58
2023/01/15 08:25:25;;;;;;;11.00;1.83;;;6.40;99.90;;;;;;4954386;28;20564;-59
2023/01/15 08:27:54;;;;;;;8.33;1.63;;;6.30;99.90;;;;;;4952860;29;20219;-59
2023/01/15 08:30:24;;;;;;;8.40;1.63;;;6.30;99.90;;;;;;4953315;28;20231;-59
2023/01/15 08:32:52;;;;;;;4.97;1.30;;;6.30;99.90;;;;;;4954194;29;20580;-59
2023/01/15 08:35:20;;;;;;;11.60;2.00;;;6.40;99.90;;;;;;4947555;28;20703;-59
2023/01/15 08:37:48;;;;;;;8.37;2.27;;;6.40;99.90;;;;;;4953474;29;20698;-59
2023/01/15 08:40:17;;;;;;;5.83;1.97;;;6.30;99.90;;;;;;4954431;28;20595;-58
2023/01/15 08:42:46;;;;;;;7.10;1.90;;;6.40;99.90;;;;;;4954083;28;20242;-59
2023/01/15 08:45:14;;;;;;;9.90;1.83;;;6.40;99.90;;;;;;4955007;28;20243;-59
2023/01/15 08:47:42;;;;;;;11.60;2.60;;;6.40;99.90;;;;;;4957209;28;20242;-58
2023/01/15 08:50:11;;;;;;;10.43;1.70;;;6.30;99.90;;;;;;4957934;29;20466;-59
2023/01/15 08:52:39;;;;;;;8.37;2.20;;;6.30;99.90;;;;;;4957730;28;20258;-58
2023/01/15 08:55:08;;;;;;;8.80;1.73;;;6.30;99.90;;;;;;4956145;29;20223;-59
2023/01/15 08:57:37;;;;;;;7.10;2.03;;;6.30;99.90;;;;;;4957932;28;20603;-58
2023/01/15 09:00:08;;;;;;;7.83;1.80;;;6.40;99.90;;;;;;4957866;28;20259;-58
2023/01/15 09:02:36;;;;;;;8.50;1.77;;;6.40;99.90;;;;;;4957090;28;20481;-59
2023/01/15 09:05:05;;;;;;;8.93;2.10;;;6.40;99.90;;;;;;4957033;28;20826;-57
2023/01/15 09:07:34;;;;;;;10.17;2.57;;;6.50;99.90;;;;;;4957440;28;20315;-59
2023/01/15 09:10:03;;;;;;;7.37;1.90;;;6.60;99.90;;;;;;4957778;29;20235;-58
2023/01/15 09:12:31;;;;;;;7.13;1.93;;;6.70;99.90;;;;;;4957356;28;20326;-58
2023/01/15 09:15:00;;;;;;;8.07;1.97;;;6.80;99.90;;;;;;4956626;29;20359;-58
2023/01/15 09:17:32;;;;;;;7.83;1.60;;;6.80;99.90;;;;;;4956063;28;20232;-57
2023/01/15 09:20:01;;;;;;;9.50;1.90;;;6.90;99.90;;;;;;4956480;29;20258;-58
2023/01/15 09:22:30;;;;;;;10.67;1.80;;;6.90;99.90;;;;;;4956940;28;20227;-65
2023/01/15 09:24:58;;;;;;;10.23;2.10;;;7.00;99.90;;;;;;4957034;29;20242;-70
2023/01/15 09:27:26;;;;;;;5.00;1.63;;;7.10;99.90;;;;;;4956482;29;20231;-66
2023/01/15 09:29:55;;;;;;;6.53;1.53;;;7.10;99.90;;;;;;4957137;29;20238;-67
2023/01/15 09:32:23;;;;;;;5.80;1.70;;;7.10;99.90;;;;;;4957016;28;20239;-67
2023/01/15 09:34:53;;;;;;;5.57;1.43;;;7.10;99.90;;;;;;4950531;28;20239;-67
2023/01/15 09:37:21;;;;;;;6.47;1.30;;;7.10;99.90;;;;;;4957141;28;20334;-68
2023/01/15 09:39:49;;;;;;;6.07;1.60;;;7.00;99.90;;;;;;4955983;29;20305;-68
2023/01/15 09:42:31;;;;;;;7.97;1.40;;;7.00;99.90;;;;;;4956872;28;20298;-68
2023/01/15 09:45:13;;;;;;;5.00;1.43;;;7.00;99.90;;;;;;4956975;29;20239;-67
2023/01/15 09:47:58;;;;;;;6.23;1.70;;;7.00;99.90;;;;;;4957035;29;20733;-68
2023/01/15 09:50:35;;;;;;;5.47;1.47;;;7.00;99.90;;;;;;4943345;29;20235;-68
2023/01/15 09:53:19;;;;;;;4.23;1.23;;;7.00;99.90;;;;;;4937656;29;20224;-68
2023/01/15 09:55:49;;;;;;;5.40;1.80;;;6.90;99.90;;;;;;4951871;28;20294;-68
2023/01/15 09:58:20;;;;;;;7.50;1.73;;;6.90;99.90;;;;;;4956091;28;20263;-66
2023/01/15 10:00:51;;;;;;;7.32;1.75;;;6.90;99.90;;;;;;4953748;28;20448;-66
2023/01/15 10:03:31;;;;;;;5.60;1.57;;;7.10;99.90;;;;;;4955949;28;20266;-67
2023/01/15 10:06:09;;;;;;;7.53;1.60;;;7.10;99.90;;;;;;4956413;28;20234;-67
2023/01/15 10:08:40;;;;;;;8.57;1.70;;;7.10;99.90;;;;;;4947192;29;20588;-67
2023/01/15 10:12:33;;;;;;;6.87;1.73;;;7.00;99.90;;;;;;4951473;29;20254;-67
2023/01/15 10:14:23;;;;;;;6.27;1.30;;;7.00;99.90;;;;;;4951794;29;20590;-67
2023/01/15 10:16:51;;;;;;;5.20;1.50;;;7.00;99.90;;;;;;4952027;28;20226;-67
2023/01/15 10:19:19;;;;;;;6.43;1.53;;;7.00;99.90;;;;;;4951826;29;20239;-67
2023/01/15 10:21:58;;;;;;;9.97;2.27;;;6.90;99.90;;;;;;4951625;29;20231;-67
2023/01/15 10:24:31;;;;;;;7.33;1.97;;;6.90;99.90;;;;;;4951698;29;20226;-67
2023/01/15 10:26:59;;;;;;;6.57;1.83;;;6.90;99.90;;;;;;4952033;28;20235;-67
2023/01/15 10:29:37;;;;;;;3.40;1.60;;;7.00;99.90;;;;;;4951963;28;20746;-67
2023/01/15 10:32:22;;;;;;;8.07;1.70;;;7.00;99.90;;;;;;4951265;28;20237;-67
2023/01/15 10:35:07;;;;;;;9.87;1.87;;;7.00;99.90;;;;;;4951722;29;20588;-67
2023/01/15 10:37:43;;;;;;;9.37;1.43;;;7.00;99.90;;;;;;4952029;28;20622;-67
2023/01/15 10:40:39;;;;;;;10.17;1.40;;;7.10;99.90;;;;;;4951829;28;20575;-67
2023/01/15 10:43:18;;;;;;;8.93;1.80;;;7.00;99.90;;;;;;4951521;29;20246;-67
2023/01/15 10:45:50;;;;;;;6.53;1.80;;;7.00;99.90;;;;;;4951333;28;20249;-67
2023/01/15 10:48:25;;;;;;;10.57;1.93;;;7.00;99.90;;;;;;4951330;28;20227;-66
2023/01/15 10:50:55;;;;;;;6.40;1.77;;;7.00;99.90;;;;;;4951536;29;20249;-67
2023/01/15 10:53:31;;;;;;;5.17;1.63;;;6.90;99.90;;;;;;4951930;29;20729;-66
2023/01/15 10:56:04;;;;;;;6.63;2.23;;;7.00;99.90;;;;;;4951569;28;20222;-66
2023/01/15 10:58:39;;;;;;;5.27;1.30;;;7.00;99.90;;;;;;4951218;29;20752;-67
2023/01/15 11:01:12;;;;;;;9.03;1.53;;;7.00;99.90;;;;;;4950868;28;20234;-67
2023/01/15 11:03:43;;;;;;;3.30;1.20;;;6.90;99.90;;;;;;4951431;29;20238;-67
2023/01/15 11:06:15;;;;;;;7.87;1.43;;;7.00;99.90;;;;;;4951186;29;20235;-66
2023/01/15 11:08:49;;;;;;;6.73;1.70;;;6.90;99.90;;;;;;4950495;28;20586;-67
2023/01/15 11:19:35;;;;;;;7.40;1.80;;;6.90;99.90;;;;;;4950766;28;20762;-67
2023/01/15 11:20:22;;;;;;;6.93;1.70;;;6.90;99.90;;;;;;4950981;29;20231;-67
2023/01/15 11:22:50;;;;;;;4.17;1.17;;;6.90;99.90;;;;;;4951118;29;20219;-66
2023/01/15 11:25:29;;;;;;;3.57;1.17;;;6.90;99.90;;;;;;4950873;29;20234;-66
2023/01/15 11:28:00;;;;;;;4.93;1.40;;;6.80;99.90;;;;;;4950875;29;20691;-66
2023/01/15 11:30:31;;;;;;;6.93;1.23;;;6.80;99.90;;;;;;4950191;28;20647;-66
2023/01/15 11:33:02;;;;;;;4.87;1.10;;;6.70;99.90;;;;;;4950024;29;20223;-66
2023/01/15 11:35:31;;;;;;;5.03;1.10;;;6.70;99.90;;;;;;4949971;28;20772;-66
2023/01/15 11:38:05;;;;;;;4.47;1.10;;;6.70;99.90;;;;;;4951029;28;20277;-67
2023/01/15 11:40:35;;;;;;;2.93;1.30;;;6.50;99.90;;;;;;4950641;29;20227;-66
2023/01/15 11:51:38;;;;;;;4.87;1.47;;;6.30;99.90;;;;;;4950347;29;20226;-66
2023/01/15 11:54:09;;;;;;;3.30;1.97;;;6.40;99.90;;;;;;4949896;28;20314;-66
2023/01/15 11:56:43;;;;;;;2.77;1.40;;;6.50;99.90;;;;;;4950102;29;20218;-66
2023/01/15 11:59:14;;;;;;;4.43;1.77;;;6.50;99.90;;;;;;4950321;28;20707;-67
2023/01/15 12:01:53;;;;;;;6.83;3.63;;;6.60;99.90;;;;;;4949105;28;20246;-66
2023/01/15 12:04:29;;;;;;;8.40;4.63;;;6.60;99.90;;;;;;4950116;29;20230;-67
2023/01/15 12:06:58;;;;;;;3.37;1.90;;;6.60;99.90;;;;;;4949998;28;20238;-67
2023/01/15 12:09:42;;;;;;;3.03;2.13;;;6.60;99.90;;;;;;4950360;29;20236;-66
2023/01/15 12:12:21;;;;;;;3.37;1.53;;;6.60;99.90;;;;;;4950450;29;20636;-67
2023/01/15 12:15:00;;;;;;;2.40;1.20;;;6.70;99.90;;;;;;4950058;29;20309;-66
2023/01/15 12:17:54;;;;;;;2.20;1.30;;;6.70;99.90;;;;;;4949988;28;20227;-66
2023/01/15 12:20:26;;;;;;;2.83;1.10;;;6.80;99.90;;;;;;4951314;28;20314;-67
2023/01/15 12:23:21;;;;;;;4.23;1.27;;;6.80;99.90;;;;;;4953984;29;20714;-67
2023/01/15 12:25:59;;;;;;;3.80;1.50;;;6.80;99.90;;;;;;4953334;29;20235;-67
2023/01/15 12:28:31;;;;;;;2.87;1.30;;;6.60;99.90;;;;;;4953709;29;20466;-67
2023/01/15 12:31:04;;;;;;;2.63;1.57;;;6.50;99.90;;;;;;4953750;28;20231;-67
2023/01/15 12:33:41;;;;;;;5.50;1.60;;;6.50;99.90;;;;;;4953955;29;20610;-67
2023/01/15 12:36:16;;;;;;;3.80;1.20;;;6.60;99.90;;;;;;4953988;28;20887;-67
2023/01/15 12:38:50;;;;;;;3.03;1.20;;;6.60;99.90;;;;;;4954303;29;20717;-67
2023/01/15 12:41:24;;;;;;;3.70;1.10;;;6.60;99.90;;;;;;4954011;28;20250;-66
2023/01/15 12:46:46;;;;;;;6.67;2.73;;;6.60;99.90;;;;;;4953802;29;21001;-66
2023/01/15 12:49:28;;;;;;;6.10;1.80;;;6.50;99.90;;;;;;4953879;28;20310;-67
2023/01/15 12:52:04;;;;;;;4.90;1.87;;;6.60;99.90;;;;;;4953616;29;20587;-67
2023/01/15 12:54:39;;;;;;;5.50;2.30;;;6.60;99.90;;;;;;4952221;29;20234;-67
2023/01/15 12:57:15;;;;;;;7.17;1.67;;;6.60;99.90;;;;;;4952927;28;20229;-67
2023/01/15 12:59:50;;;;;;;7.03;1.67;;;6.50;99.90;;;;;;4952975;28;20243;-66
2023/01/15 13:02:24;;;;;;;3.50;2.03;;;6.50;99.90;;;;;;4952159;28;20250;-67
2023/01/15 13:04:57;;;;;;;8.17;2.50;;;6.50;99.90;;;;;;4952884;29;20234;-67
2023/01/15 13:07:30;;;;;;;4.87;1.73;;;6.60;99.90;;;;;;4953136;29;20252;-67
2023/01/15 13:10:05;;;;;;;6.10;1.70;;;6.60;99.90;;;;;;4953821;29;20466;-67
2023/01/15 13:12:34;;;;;;;4.47;1.53;;;6.60;99.90;;;;;;4953293;29;20705;-67
2023/01/15 13:15:05;;;;;;;6.53;1.67;;;6.60;99.90;;;;;;4953210;29;20542;-67
2023/01/15 13:17:43;;;;;;;6.00;1.57;;;6.60;99.90;;;;;;4952822;28;20226;-67
2023/01/15 13:20:31;;;;;;;3.03;1.60;;;6.60;99.90;;;;;;4953732;29;20237;-67
2023/01/15 13:23:18;;;;;;;5.50;1.50;;;6.60;99.90;;;;;;4952626;29;20234;-67
2023/01/15 13:26:11;;;;;;;6.97;1.70;;;6.70;99.90;;;;;;4953036;29;20227;-67
2023/01/15 13:28:53;;;;;;;5.33;1.50;;;6.70;99.90;;;;;;4952672;28;20282;-67
2023/01/15 13:31:37;;;;;;;6.40;1.50;;;6.80;99.90;;;;;;4951532;28;20475;-66
2023/01/15 13:34:11;;;;;;;3.93;1.67;;;6.80;99.90;;;;;;4952449;29;20269;-66
2023/01/15 13:36:42;;;;;;;8.77;1.63;;;6.80;99.90;;;;;;4952450;29;20591;-67
2023/01/15 13:39:18;;;;;;;5.67;1.60;;;6.80;99.90;;;;;;4952811;28;20227;-66
2023/01/15 13:44:38;;;;;;;4.40;1.50;;;6.90;99.90;;;;;;4952506;28;20255;-67
2023/01/15 13:47:11;;;;;;;9.47;2.40;;;6.90;99.90;;;;;;4952623;28;20231;-67
2023/01/15 13:49:46;;;;;;;4.30;1.90;;;6.90;99.90;;;;;;4952494;28;20239;-66
2023/01/15 13:52:22;;;;;;;4.73;1.50;;;6.90;99.90;;;;;;4952558;29;20231;-67
2023/01/15 13:54:51;;;;;;;7.00;1.70;;;6.90;99.90;;;;;;4952098;29;20239;-67
2023/01/15 13:57:25;;;;;;;2.77;1.30;;;6.90;99.90;;;;;;4952526;29;20223;-67
2023/01/15 13:59:53;;;;;;;5.53;1.50;;;6.90;99.90;;;;;;4952062;28;20245;-66
2023/01/15 14:02:30;;;;;;;3.50;1.50;;;6.90;99.90;;;;;;4951554;28;20239;-67